sensor_id;sensor_type;location;lat;lon;timestamp;temperature;humidity
11214;DHT22;5664;48.606;13.456;2022-11-04T00:01:07;19.70;99.40
11214;DHT22;5664;48.606;13.456;2022-11-04T00:03:33;19.60;99.40
11214;DHT22;5664;48.606;13.456;2022-11-04T00:06:01;19.60;99.40
11214;DHT22;5664;48.606;13.456;2022-11-04T00:08:27;19.70;99.40
11214;DHT22;5664;48.606;13.456;2022-11-04T00:10:59;19.60;99.30
11214;DHT22;5664;48.606;13.456;2022-11-04T00:13:43;19.60;99.30
11214;DHT22;5664;48.606;13.456;2022-11-04T00:16:09;19.60;99.30
11214;DHT22;5664;48.606;13.456;2022-11-04T00:18:53;19.60;99.30
11214;DHT22;5664;48.606;13.456;2022-11-04T00:21:18;19.60;99.30
11214;DHT22;5664;48.606;13.456;2022-11-04T00:24:02;19.60;99.30
11214;DHT22;5664;48.606;13.456;2022-11-04T00:26:47;19.60;99.30
11214;DHT22;5664;48.606;13.456;2022-11-04T00:29:31;19.60;99.30
11214;DHT22;5664;48.606;13.456;2022-11-04T00:31:57;19.60;99.30
11214;DHT22;5664;48.606;13.456;2022-11-04T00:34:41;19.60;99.30
11214;DHT22;5664;48.606;13.456;2022-11-04T00:37:06;19.60;99.20
11214;DHT22;5664;48.606;13.456;2022-11-04T00:39:32;19.60;99.20
11214;DHT22;5664;48.606;13.456;2022-11-04T00:41:57;19.60;99.20
11214;DHT22;5664;48.606;13.456;2022-11-04T00:44:23;20.10;99.40
11214;DHT22;5664;48.606;13.456;2022-11-04T00:46:48;19.60;99.20
11214;DHT22;5664;48.606;13.456;2022-11-04T00:49:14;19.60;99.20
11214;DHT22;5664;48.606;13.456;2022-11-04T00:51:39;19.60;99.20
11214;DHT22;5664;48.606;13.456;2022-11-04T00:54:04;19.60;99.20
11214;DHT22;5664;48.606;13.456;2022-11-04T00:56:30;19.60;99.20
11214;DHT22;5664;48.606;13.456;2022-11-04T00:58:57;19.60;99.20
11214;DHT22;5664;48.606;13.456;2022-11-04T01:01:25;19.60;99.10
11214;DHT22;5664;48.606;13.456;2022-11-04T01:03:51;19.60;99.10
11214;DHT22;5664;48.606;13.456;2022-11-04T01:06:17;19.60;99.10
11214;DHT22;5664;48.606;13.456;2022-11-04T01:08:42;19.60;99.10
11214;DHT22;5664;48.606;13.456;2022-11-04T01:11:08;19.60;99.10
11214;DHT22;5664;48.606;13.456;2022-11-04T01:13:34;19.60;99.10
11214;DHT22;5664;48.606;13.456;2022-11-04T01:16:00;19.60;99.10
11214;DHT22;5664;48.606;13.456;2022-11-04T01:18:26;19.50;99.10
11214;DHT22;5664;48.606;13.456;2022-11-04T01:20:51;19.60;99.10
11214;DHT22;5664;48.606;13.456;2022-11-04T01:23:17;19.60;99.10
11214;DHT22;5664;48.606;13.456;2022-11-04T01:25:42;19.50;99.00
11214;DHT22;5664;48.606;13.456;2022-11-04T01:28:08;19.50;99.00
11214;DHT22;5664;48.606;13.456;2022-11-04T01:30:33;19.60;99.10
11214;DHT22;5664;48.606;13.456;2022-11-04T01:32:59;19.60;99.10
11214;DHT22;5664;48.606;13.456;2022-11-04T01:35:24;19.60;99.10
11214;DHT22;5664;48.606;13.456;2022-11-04T01:37:49;19.50;99.00
11214;DHT22;5664;48.606;13.456;2022-11-04T01:40:15;19.50;99.00
11214;DHT22;5664;48.606;13.456;2022-11-04T01:42:40;19.50;99.00
11214;DHT22;5664;48.606;13.456;2022-11-04T01:45:13;19.60;99.00
11214;DHT22;5664;48.606;13.456;2022-11-04T01:47:39;19.50;99.00
11214;DHT22;5664;48.606;13.456;2022-11-04T01:52:36;19.50;99.00
11214;DHT22;5664;48.606;13.456;2022-11-04T01:55:04;19.50;99.30
11214;DHT22;5664;48.606;13.456;2022-11-04T01:57:35;19.50;99.00
11214;DHT22;5664;48.606;13.456;2022-11-04T02:00:03;19.60;99.00
11214;DHT22;5664;48.606;13.456;2022-11-04T02:02:29;19.50;99.00
11214;DHT22;5664;48.606;13.456;2022-11-04T02:04:54;19.50;98.90
11214;DHT22;5664;48.606;13.456;2022-11-04T02:07:20;19.50;98.90
11214;DHT22;5664;48.606;13.456;2022-11-04T02:09:45;19.50;98.90
11214;DHT22;5664;48.606;13.456;2022-11-04T02:12:11;19.50;98.90
11214;DHT22;5664;48.606;13.456;2022-11-04T02:14:55;19.50;98.90
11214;DHT22;5664;48.606;13.456;2022-11-04T02:17:26;19.50;98.90
11214;DHT22;5664;48.606;13.456;2022-11-04T02:19:58;19.50;98.90
11214;DHT22;5664;48.606;13.456;2022-11-04T02:27:27;19.50;98.90
11214;DHT22;5664;48.606;13.456;2022-11-04T02:30:02;19.50;98.80
11214;DHT22;5664;48.606;13.456;2022-11-04T02:32:33;19.50;98.90
11214;DHT22;5664;48.606;13.456;2022-11-04T02:35:07;19.50;99.20
11214;DHT22;5664;48.606;13.456;2022-11-04T02:42:57;19.50;98.80
11214;DHT22;5664;48.606;13.456;2022-11-04T02:45:31;19.50;98.80
11214;DHT22;5664;48.606;13.456;2022-11-04T02:53:06;19.50;98.80
11214;DHT22;5664;48.606;13.456;2022-11-04T02:55:36;19.50;98.80
11214;DHT22;5664;48.606;13.456;2022-11-04T02:58:04;19.50;98.80
11214;DHT22;5664;48.606;13.456;2022-11-04T03:00:31;19.50;98.80
11214;DHT22;5664;48.606;13.456;2022-11-04T03:02:59;19.50;98.80
11214;DHT22;5664;48.606;13.456;2022-11-04T03:05:26;19.50;98.70
11214;DHT22;5664;48.606;13.456;2022-11-04T03:07:54;19.50;98.70
11214;DHT22;5664;48.606;13.456;2022-11-04T03:10:37;19.50;98.70
11214;DHT22;5664;48.606;13.456;2022-11-04T03:13:19;19.50;98.70
11214;DHT22;5664;48.606;13.456;2022-11-04T03:15:47;19.50;98.70
11214;DHT22;5664;48.606;13.456;2022-11-04T03:18:17;19.50;98.70
11214;DHT22;5664;48.606;13.456;2022-11-04T03:20:45;19.50;98.70
11214;DHT22;5664;48.606;13.456;2022-11-04T03:23:12;19.50;98.70
11214;DHT22;5664;48.606;13.456;2022-11-04T03:25:43;19.50;98.70
11214;DHT22;5664;48.606;13.456;2022-11-04T03:28:19;19.50;98.70
11214;DHT22;5664;48.606;13.456;2022-11-04T03:30:48;19.50;98.70
11214;DHT22;5664;48.606;13.456;2022-11-04T03:36:13;19.40;98.70
11214;DHT22;5664;48.606;13.456;2022-11-04T03:38:39;19.50;98.70
11214;DHT22;5664;48.606;13.456;2022-11-04T03:41:07;19.50;98.70
11214;DHT22;5664;48.606;13.456;2022-11-04T03:43:34;19.50;98.70
11214;DHT22;5664;48.606;13.456;2022-11-04T03:46:00;19.40;98.70
11214;DHT22;5664;48.606;13.456;2022-11-04T03:48:26;19.50;98.70
11214;DHT22;5664;48.606;13.456;2022-11-04T03:50:51;19.40;98.60
11214;DHT22;5664;48.606;13.456;2022-11-04T03:53:26;19.40;98.60
11214;DHT22;5664;48.606;13.456;2022-11-04T04:00:50;19.40;98.60
11214;DHT22;5664;48.606;13.456;2022-11-04T04:03:17;19.40;98.60
11214;DHT22;5664;48.606;13.456;2022-11-04T04:05:55;19.40;98.60
11214;DHT22;5664;48.606;13.456;2022-11-04T04:11:00;19.40;98.60
11214;DHT22;5664;48.606;13.456;2022-11-04T04:18:57;19.40;98.60
11214;DHT22;5664;48.606;13.456;2022-11-04T04:21:26;19.40;98.60
11214;DHT22;5664;48.606;13.456;2022-11-04T04:23:52;19.40;98.60
11214;DHT22;5664;48.606;13.456;2022-11-04T04:26:38;19.40;98.60
11214;DHT22;5664;48.606;13.456;2022-11-04T04:29:22;19.40;98.60
11214;DHT22;5664;48.606;13.456;2022-11-04T04:31:49;19.40;98.60
11214;DHT22;5664;48.606;13.456;2022-11-04T04:36:50;19.40;98.60
11214;DHT22;5664;48.606;13.456;2022-11-04T04:39:17;19.40;98.50
11214;DHT22;5664;48.606;13.456;2022-11-04T04:42:03;19.40;98.60
11214;DHT22;5664;48.606;13.456;2022-11-04T04:44:47;19.40;98.60
11214;DHT22;5664;48.606;13.456;2022-11-04T04:47:30;19.40;98.60
11214;DHT22;5664;48.606;13.456;2022-11-04T04:49:57;19.40;98.50
11214;DHT22;5664;48.606;13.456;2022-11-04T04:52:24;19.40;98.50
11214;DHT22;5664;48.606;13.456;2022-11-04T04:54:50;19.40;98.60
11214;DHT22;5664;48.606;13.456;2022-11-04T04:57:15;19.40;98.60
11214;DHT22;5664;48.606;13.456;2022-11-04T04:59:41;19.40;98.60
11214;DHT22;5664;48.606;13.456;2022-11-04T05:02:06;19.40;98.60
11214;DHT22;5664;48.606;13.456;2022-11-04T05:04:32;19.40;98.50
11214;DHT22;5664;48.606;13.456;2022-11-04T05:06:57;19.40;98.50
11214;DHT22;5664;48.606;13.456;2022-11-04T05:09:23;19.40;98.50
11214;DHT22;5664;48.606;13.456;2022-11-04T05:11:48;19.40;98.50
11214;DHT22;5664;48.606;13.456;2022-11-04T05:14:13;19.40;98.50
11214;DHT22;5664;48.606;13.456;2022-11-04T05:16:39;19.40;98.60
11214;DHT22;5664;48.606;13.456;2022-11-04T05:19:04;19.40;98.60
11214;DHT22;5664;48.606;13.456;2022-11-04T05:21:30;19.40;98.60
11214;DHT22;5664;48.606;13.456;2022-11-04T05:23:55;19.40;98.60
11214;DHT22;5664;48.606;13.456;2022-11-04T05:26:21;19.40;98.60
11214;DHT22;5664;48.606;13.456;2022-11-04T05:28:46;19.40;98.60
11214;DHT22;5664;48.606;13.456;2022-11-04T05:31:12;19.40;98.70
11214;DHT22;5664;48.606;13.456;2022-11-04T05:33:37;19.30;98.60
11214;DHT22;5664;48.606;13.456;2022-11-04T05:38:31;19.40;98.70
11214;DHT22;5664;48.606;13.456;2022-11-04T05:40:57;19.40;98.70
11214;DHT22;5664;48.606;13.456;2022-11-04T05:43:22;19.40;98.70
11214;DHT22;5664;48.606;13.456;2022-11-04T05:45:48;19.40;98.60
11214;DHT22;5664;48.606;13.456;2022-11-04T05:48:13;19.40;98.60
11214;DHT22;5664;48.606;13.456;2022-11-04T05:50:39;19.40;98.60
11214;DHT22;5664;48.606;13.456;2022-11-04T05:53:05;19.30;98.50
11214;DHT22;5664;48.606;13.456;2022-11-04T05:55:31;19.40;98.60
11214;DHT22;5664;48.606;13.456;2022-11-04T05:57:56;19.40;98.50
11214;DHT22;5664;48.606;13.456;2022-11-04T06:00:25;19.30;98.50
11214;DHT22;5664;48.606;13.456;2022-11-04T06:02:50;19.40;98.50
11214;DHT22;5664;48.606;13.456;2022-11-04T06:05:16;19.30;98.50
11214;DHT22;5664;48.606;13.456;2022-11-04T06:07:42;19.40;98.60
11214;DHT22;5664;48.606;13.456;2022-11-04T06:10:07;19.40;98.60
11214;DHT22;5664;48.606;13.456;2022-11-04T06:12:33;19.40;98.60
11214;DHT22;5664;48.606;13.456;2022-11-04T06:14:58;19.40;98.60
11214;DHT22;5664;48.606;13.456;2022-11-04T06:17:24;19.30;98.60
11214;DHT22;5664;48.606;13.456;2022-11-04T06:19:49;19.40;98.70
11214;DHT22;5664;48.606;13.456;2022-11-04T06:22:15;19.30;98.60
11214;DHT22;5664;48.606;13.456;2022-11-04T06:24:41;19.40;98.70
11214;DHT22;5664;48.606;13.456;2022-11-04T06:27:07;19.40;98.70
11214;DHT22;5664;48.606;13.456;2022-11-04T06:29:33;19.40;98.70
11214;DHT22;5664;48.606;13.456;2022-11-04T06:31:58;19.40;98.70
11214;DHT22;5664;48.606;13.456;2022-11-04T06:34:24;19.40;98.80
11214;DHT22;5664;48.606;13.456;2022-11-04T06:36:50;19.30;98.70
11214;DHT22;5664;48.606;13.456;2022-11-04T06:39:15;19.30;98.70
11214;DHT22;5664;48.606;13.456;2022-11-04T06:41:41;19.30;98.80
11214;DHT22;5664;48.606;13.456;2022-11-04T06:44:06;19.40;98.80
11214;DHT22;5664;48.606;13.456;2022-11-04T06:48:57;19.40;99.00
11214;DHT22;5664;48.606;13.456;2022-11-04T06:51:23;19.40;98.90
11214;DHT22;5664;48.606;13.456;2022-11-04T06:53:49;19.40;98.90
11214;DHT22;5664;48.606;13.456;2022-11-04T06:56:14;19.40;98.90
11214;DHT22;5664;48.606;13.456;2022-11-04T06:58:40;19.30;98.80
11214;DHT22;5664;48.606;13.456;2022-11-04T07:01:05;19.40;98.90
11214;DHT22;5664;48.606;13.456;2022-11-04T07:03:31;19.40;98.90
11214;DHT22;5664;48.606;13.456;2022-11-04T07:05:56;19.40;98.90
11214;DHT22;5664;48.606;13.456;2022-11-04T07:08:21;19.40;98.90
11214;DHT22;5664;48.606;13.456;2022-11-04T07:10:47;19.40;98.90
11214;DHT22;5664;48.606;13.456;2022-11-04T07:13:12;19.40;98.90
11214;DHT22;5664;48.606;13.456;2022-11-04T07:15:38;19.40;98.90
11214;DHT22;5664;48.606;13.456;2022-11-04T07:18:04;19.40;99.00
11214;DHT22;5664;48.606;13.456;2022-11-04T07:20:31;19.40;99.00
11214;DHT22;5664;48.606;13.456;2022-11-04T07:22:57;19.40;99.00
11214;DHT22;5664;48.606;13.456;2022-11-04T07:25:22;19.40;99.00
11214;DHT22;5664;48.606;13.456;2022-11-04T07:27:48;19.40;99.00
11214;DHT22;5664;48.606;13.456;2022-11-04T07:30:13;19.40;99.00
11214;DHT22;5664;48.606;13.456;2022-11-04T07:32:39;19.40;99.00
11214;DHT22;5664;48.606;13.456;2022-11-04T07:35:05;19.40;99.00
11214;DHT22;5664;48.606;13.456;2022-11-04T07:37:30;19.40;99.00
11214;DHT22;5664;48.606;13.456;2022-11-04T07:39:56;19.40;99.10
11214;DHT22;5664;48.606;13.456;2022-11-04T07:42:21;19.40;99.10
11214;DHT22;5664;48.606;13.456;2022-11-04T07:44:47;19.40;99.10
11214;DHT22;5664;48.606;13.456;2022-11-04T07:47:12;19.40;99.10
11214;DHT22;5664;48.606;13.456;2022-11-04T07:49:37;19.40;99.10
11214;DHT22;5664;48.606;13.456;2022-11-04T07:52:03;19.40;99.10
11214;DHT22;5664;48.606;13.456;2022-11-04T07:54:28;19.40;99.10
11214;DHT22;5664;48.606;13.456;2022-11-04T07:56:54;19.40;99.10
11214;DHT22;5664;48.606;13.456;2022-11-04T07:59:19;19.40;99.20
11214;DHT22;5664;48.606;13.456;2022-11-04T08:01:45;19.40;99.20
11214;DHT22;5664;48.606;13.456;2022-11-04T08:04:10;19.40;99.20
11214;DHT22;5664;48.606;13.456;2022-11-04T08:06:36;19.40;99.20
11214;DHT22;5664;48.606;13.456;2022-11-04T08:09:01;19.40;99.20
11214;DHT22;5664;48.606;13.456;2022-11-04T08:11:27;19.40;99.20
11214;DHT22;5664;48.606;13.456;2022-11-04T08:13:53;19.40;99.20
11214;DHT22;5664;48.606;13.456;2022-11-04T08:16:19;19.40;99.20
11214;DHT22;5664;48.606;13.456;2022-11-04T08:18:47;19.40;99.20
11214;DHT22;5664;48.606;13.456;2022-11-04T08:21:13;19.40;99.20
11214;DHT22;5664;48.606;13.456;2022-11-04T08:23:39;19.40;99.20
11214;DHT22;5664;48.606;13.456;2022-11-04T08:26:11;19.40;99.30
11214;DHT22;5664;48.606;13.456;2022-11-04T08:28:37;19.40;99.30
11214;DHT22;5664;48.606;13.456;2022-11-04T08:31:10;19.40;99.30
11214;DHT22;5664;48.606;13.456;2022-11-04T08:33:37;19.40;99.30
11214;DHT22;5664;48.606;13.456;2022-11-04T08:36:06;19.40;99.30
11214;DHT22;5664;48.606;13.456;2022-11-04T08:38:33;19.40;99.30
11214;DHT22;5664;48.606;13.456;2022-11-04T08:41:00;19.40;99.30
11214;DHT22;5664;48.606;13.456;2022-11-04T08:43:26;19.40;99.30
11214;DHT22;5664;48.606;13.456;2022-11-04T08:45:52;19.40;99.30
11214;DHT22;5664;48.606;13.456;2022-11-04T08:48:18;19.40;99.30
11214;DHT22;5664;48.606;13.456;2022-11-04T08:50:46;19.40;99.30
11214;DHT22;5664;48.606;13.456;2022-11-04T08:53:12;19.40;99.30
11214;DHT22;5664;48.606;13.456;2022-11-04T08:55:37;19.40;99.30
11214;DHT22;5664;48.606;13.456;2022-11-04T08:58:03;19.40;99.30
11214;DHT22;5664;48.606;13.456;2022-11-04T09:00:29;19.40;99.30
11214;DHT22;5664;48.606;13.456;2022-11-04T09:02:54;19.30;99.30
11214;DHT22;5664;48.606;13.456;2022-11-04T09:05:20;19.40;99.30
11214;DHT22;5664;48.606;13.456;2022-11-04T09:07:46;19.40;99.30
11214;DHT22;5664;48.606;13.456;2022-11-04T09:10:11;19.40;99.30
11214;DHT22;5664;48.606;13.456;2022-11-04T09:12:37;19.40;99.30
11214;DHT22;5664;48.606;13.456;2022-11-04T09:15:03;19.30;99.30
11214;DHT22;5664;48.606;13.456;2022-11-04T09:17:29;19.30;99.30
11214;DHT22;5664;48.606;13.456;2022-11-04T09:19:55;19.40;99.30
11214;DHT22;5664;48.606;13.456;2022-11-04T09:22:21;19.40;99.40
11214;DHT22;5664;48.606;13.456;2022-11-04T09:24:46;19.40;99.40
11214;DHT22;5664;48.606;13.456;2022-11-04T09:27:12;19.40;99.30
11214;DHT22;5664;48.606;13.456;2022-11-04T09:29:39;19.30;99.30
11214;DHT22;5664;48.606;13.456;2022-11-04T09:32:05;19.40;99.30
11214;DHT22;5664;48.606;13.456;2022-11-04T09:34:31;19.40;99.30
11214;DHT22;5664;48.606;13.456;2022-11-04T09:36:56;19.40;99.30
11214;DHT22;5664;48.606;13.456;2022-11-04T09:39:22;19.40;99.30
11214;DHT22;5664;48.606;13.456;2022-11-04T09:41:56;19.40;99.30
11214;DHT22;5664;48.606;13.456;2022-11-04T09:44:39;19.40;99.30
11214;DHT22;5664;48.606;13.456;2022-11-04T09:47:08;19.40;99.30
11214;DHT22;5664;48.606;13.456;2022-11-04T09:49:35;19.40;99.30
11214;DHT22;5664;48.606;13.456;2022-11-04T09:52:03;19.50;99.10
11214;DHT22;5664;48.606;13.456;2022-11-04T09:54:34;19.60;99.30
11214;DHT22;5664;48.606;13.456;2022-11-04T09:57:03;19.60;99.50
11214;DHT22;5664;48.606;13.456;2022-11-04T09:59:29;19.70;99.90
11214;DHT22;5664;48.606;13.456;2022-11-04T10:02:06;19.70;99.90
11214;DHT22;5664;48.606;13.456;2022-11-04T10:04:46;19.70;99.90
11214;DHT22;5664;48.606;13.456;2022-11-04T10:09:46;19.80;99.90
11214;DHT22;5664;48.606;13.456;2022-11-04T10:22:41;19.70;96.50
11214;DHT22;5664;48.606;13.456;2022-11-04T10:25:14;19.70;97.10
11214;DHT22;5664;48.606;13.456;2022-11-04T10:27:43;19.70;97.20
11214;DHT22;5664;48.606;13.456;2022-11-04T10:30:22;19.70;97.20
11214;DHT22;5664;48.606;13.456;2022-11-04T10:35:34;19.80;97.20
11214;DHT22;5664;48.606;13.456;2022-11-04T10:38:11;19.80;97.20
11214;DHT22;5664;48.606;13.456;2022-11-04T10:40:38;19.80;97.20
11214;DHT22;5664;48.606;13.456;2022-11-04T10:43:06;19.80;97.10
11214;DHT22;5664;48.606;13.456;2022-11-04T10:45:34;19.90;97.10
11214;DHT22;5664;48.606;13.456;2022-11-04T10:48:05;19.90;97.20
11214;DHT22;5664;48.606;13.456;2022-11-04T10:50:37;19.90;97.20
11214;DHT22;5664;48.606;13.456;2022-11-04T10:53:15;19.90;97.20
11214;DHT22;5664;48.606;13.456;2022-11-04T10:58:27;20.00;97.30
11214;DHT22;5664;48.606;13.456;2022-11-04T11:00:53;20.00;97.30
11214;DHT22;5664;48.606;13.456;2022-11-04T11:03:26;20.00;97.30
11214;DHT22;5664;48.606;13.456;2022-11-04T11:05:53;20.00;97.30
11214;DHT22;5664;48.606;13.456;2022-11-04T11:08:29;20.00;97.50
11214;DHT22;5664;48.606;13.456;2022-11-04T11:10:55;20.10;97.30
11214;DHT22;5664;48.606;13.456;2022-11-04T11:13:27;20.10;97.30
11214;DHT22;5664;48.606;13.456;2022-11-04T11:16:08;20.10;97.30
11214;DHT22;5664;48.606;13.456;2022-11-04T11:18:34;20.10;97.30
11214;DHT22;5664;48.606;13.456;2022-11-04T11:21:14;20.10;97.20
11214;DHT22;5664;48.606;13.456;2022-11-04T11:23:44;20.10;97.20
11214;DHT22;5664;48.606;13.456;2022-11-04T11:26:12;20.10;98.10
11214;DHT22;5664;48.606;13.456;2022-11-04T11:28:38;20.20;99.20
11214;DHT22;5664;48.606;13.456;2022-11-04T11:31:06;20.20;99.90
11214;DHT22;5664;48.606;13.456;2022-11-04T11:33:45;20.20;99.90
11214;DHT22;5664;48.606;13.456;2022-11-04T11:38:38;20.20;99.90
11214;DHT22;5664;48.606;13.456;2022-11-04T11:41:15;20.20;99.90
11214;DHT22;5664;48.606;13.456;2022-11-04T11:43:51;20.20;99.90
11214;DHT22;5664;48.606;13.456;2022-11-04T11:46:20;20.20;99.90
11214;DHT22;5664;48.606;13.456;2022-11-04T11:48:50;20.20;99.90
11214;DHT22;5664;48.606;13.456;2022-11-04T11:51:23;20.20;99.90
11214;DHT22;5664;48.606;13.456;2022-11-04T11:56:29;20.10;99.90
11214;DHT22;5664;48.606;13.456;2022-11-04T12:01:33;20.10;99.90
11214;DHT22;5664;48.606;13.456;2022-11-04T12:04:00;20.10;99.90
11214;DHT22;5664;48.606;13.456;2022-11-04T12:06:49;20.10;99.90
11214;DHT22;5664;48.606;13.456;2022-11-04T12:09:32;20.10;99.90
11214;DHT22;5664;48.606;13.456;2022-11-04T12:14:37;20.10;99.90
11214;DHT22;5664;48.606;13.456;2022-11-04T12:17:10;20.10;99.90
11214;DHT22;5664;48.606;13.456;2022-11-04T12:19:43;20.10;99.90
11214;DHT22;5664;48.606;13.456;2022-11-04T12:22:16;20.10;99.90
11214;DHT22;5664;48.606;13.456;2022-11-04T12:28:01;20.10;99.90
11214;DHT22;5664;48.606;13.456;2022-11-04T12:40:25;20.20;99.40
11214;DHT22;5664;48.606;13.456;2022-11-04T12:56:38;20.20;99.70
11214;DHT22;5664;48.606;13.456;2022-11-04T13:01:35;20.20;99.60
11214;DHT22;5664;48.606;13.456;2022-11-04T13:04:08;20.20;99.60
11214;DHT22;5664;48.606;13.456;2022-11-04T13:09:31;20.20;99.60
11214;DHT22;5664;48.606;13.456;2022-11-04T13:12:11;20.20;99.70
11214;DHT22;5664;48.606;13.456;2022-11-04T13:14:49;20.10;99.70
11214;DHT22;5664;48.606;13.456;2022-11-04T13:17:18;20.10;99.70
11214;DHT22;5664;48.606;13.456;2022-11-04T13:19:48;20.10;99.70
11214;DHT22;5664;48.606;13.456;2022-11-04T13:22:15;20.10;99.80
11214;DHT22;5664;48.606;13.456;2022-11-04T13:24:57;20.10;99.80
11214;DHT22;5664;48.606;13.456;2022-11-04T13:27:29;20.00;99.90
11214;DHT22;5664;48.606;13.456;2022-11-04T13:30:04;20.10;99.90
11214;DHT22;5664;48.606;13.456;2022-11-04T13:32:32;20.00;99.90
11214;DHT22;5664;48.606;13.456;2022-11-04T13:40:11;20.00;99.90
11214;DHT22;5664;48.606;13.456;2022-11-04T13:45:16;20.00;99.90
11214;DHT22;5664;48.606;13.456;2022-11-04T13:50:12;20.00;99.90
11214;DHT22;5664;48.606;13.456;2022-11-04T13:52:51;20.00;99.90
11214;DHT22;5664;48.606;13.456;2022-11-04T13:55:17;20.00;99.90
11214;DHT22;5664;48.606;13.456;2022-11-04T13:58:14;20.00;99.90
11214;DHT22;5664;48.606;13.456;2022-11-04T14:00:32;20.00;99.90
11214;DHT22;5664;48.606;13.456;2022-11-04T14:05:44;20.00;99.90
11214;DHT22;5664;48.606;13.456;2022-11-04T14:08:11;20.10;99.90
11214;DHT22;5664;48.606;13.456;2022-11-04T14:10:59;20.10;99.90
11214;DHT22;5664;48.606;13.456;2022-11-04T14:18:45;20.00;99.90
11214;DHT22;5664;48.606;13.456;2022-11-04T14:23:37;20.10;99.90
11214;DHT22;5664;48.606;13.456;2022-11-04T14:26:04;20.10;99.90
11214;DHT22;5664;48.606;13.456;2022-11-04T14:28:30;20.10;99.90
11214;DHT22;5664;48.606;13.456;2022-11-04T14:30:57;20.10;99.90
11214;DHT22;5664;48.606;13.456;2022-11-04T14:33:33;20.10;99.90
11214;DHT22;5664;48.606;13.456;2022-11-04T14:38:51;20.10;99.90
11214;DHT22;5664;48.606;13.456;2022-11-04T14:43:45;20.10;99.90
11214;DHT22;5664;48.606;13.456;2022-11-04T14:46:12;20.10;99.90
11214;DHT22;5664;48.606;13.456;2022-11-04T14:48:46;20.10;99.90
11214;DHT22;5664;48.606;13.456;2022-11-04T14:51:32;20.10;99.90
11214;DHT22;5664;48.606;13.456;2022-11-04T14:54:09;20.20;99.90
11214;DHT22;5664;48.606;13.456;2022-11-04T14:56:35;20.20;99.90
11214;DHT22;5664;48.606;13.456;2022-11-04T14:59:04;20.20;99.90
11214;DHT22;5664;48.606;13.456;2022-11-04T15:01:30;20.20;99.80
11214;DHT22;5664;48.606;13.456;2022-11-04T15:03:58;20.20;99.60
11214;DHT22;5664;48.606;13.456;2022-11-04T15:06:28;20.20;99.60
11214;DHT22;5664;48.606;13.456;2022-11-04T15:08:54;20.20;99.80
11214;DHT22;5664;48.606;13.456;2022-11-04T15:11:21;20.20;99.40
11214;DHT22;5664;48.606;13.456;2022-11-04T15:16:37;20.20;99.10
11214;DHT22;5664;48.606;13.456;2022-11-04T15:19:03;20.20;99.00
11214;DHT22;5664;48.606;13.456;2022-11-04T15:21:36;20.20;98.80
11214;DHT22;5664;48.606;13.456;2022-11-04T15:24:02;20.20;98.80
11214;DHT22;5664;48.606;13.456;2022-11-04T15:26:28;20.20;98.70
11214;DHT22;5664;48.606;13.456;2022-11-04T15:28:54;20.20;98.60
11214;DHT22;5664;48.606;13.456;2022-11-04T15:31:21;20.30;98.30
11214;DHT22;5664;48.606;13.456;2022-11-04T15:33:48;20.30;97.20
11214;DHT22;5664;48.606;13.456;2022-11-04T15:36:19;20.30;96.80
11214;DHT22;5664;48.606;13.456;2022-11-04T15:38:46;20.30;96.60
11214;DHT22;5664;48.606;13.456;2022-11-04T15:41:13;20.30;96.70
11214;DHT22;5664;48.606;13.456;2022-11-04T15:43:58;20.30;96.80
11214;DHT22;5664;48.606;13.456;2022-11-04T15:46:24;20.30;97.20
11214;DHT22;5664;48.606;13.456;2022-11-04T15:49:01;20.20;97.30
11214;DHT22;5664;48.606;13.456;2022-11-04T15:51:27;20.30;97.40
11214;DHT22;5664;48.606;13.456;2022-11-04T15:53:55;20.20;97.40
11214;DHT22;5664;48.606;13.456;2022-11-04T15:56:29;20.20;97.50
11214;DHT22;5664;48.606;13.456;2022-11-04T15:58:56;20.20;97.60
11214;DHT22;5664;48.606;13.456;2022-11-04T16:01:22;20.20;97.80
11214;DHT22;5664;48.606;13.456;2022-11-04T16:03:57;20.20;97.90
11214;DHT22;5664;48.606;13.456;2022-11-04T16:06:36;20.20;98.10
11214;DHT22;5664;48.606;13.456;2022-11-04T16:09:04;20.20;97.50
11214;DHT22;5664;48.606;13.456;2022-11-04T16:11:29;20.10;95.50
11214;DHT22;5664;48.606;13.456;2022-11-04T16:14:12;20.10;93.90
11214;DHT22;5664;48.606;13.456;2022-11-04T16:16:38;20.10;92.80
11214;DHT22;5664;48.606;13.456;2022-11-04T16:19:03;20.00;92.20
11214;DHT22;5664;48.606;13.456;2022-11-04T16:21:30;20.00;92.70
11214;DHT22;5664;48.606;13.456;2022-11-04T16:23:58;20.00;93.60
11214;DHT22;5664;48.606;13.456;2022-11-04T16:26:25;20.00;94.30
11214;DHT22;5664;48.606;13.456;2022-11-04T16:28:52;20.00;95.00
11214;DHT22;5664;48.606;13.456;2022-11-04T16:33:47;20.00;95.70
11214;DHT22;5664;48.606;13.456;2022-11-04T16:36:15;20.00;96.00
11214;DHT22;5664;48.606;13.456;2022-11-04T16:38:52;20.10;96.30
11214;DHT22;5664;48.606;13.456;2022-11-04T16:41:18;20.10;96.50
11214;DHT22;5664;48.606;13.456;2022-11-04T16:43:44;20.00;96.60
11214;DHT22;5664;48.606;13.456;2022-11-04T16:46:10;20.10;96.70
11214;DHT22;5664;48.606;13.456;2022-11-04T16:48:36;20.10;96.80
11214;DHT22;5664;48.606;13.456;2022-11-04T16:51:02;20.10;96.80
11214;DHT22;5664;48.606;13.456;2022-11-04T16:53:27;20.10;96.90
11214;DHT22;5664;48.606;13.456;2022-11-04T16:55:53;20.10;97.00
11214;DHT22;5664;48.606;13.456;2022-11-04T16:58:18;20.10;97.00
11214;DHT22;5664;48.606;13.456;2022-11-04T17:00:44;20.10;97.00
11214;DHT22;5664;48.606;13.456;2022-11-04T17:03:13;20.10;97.10
11214;DHT22;5664;48.606;13.456;2022-11-04T17:05:45;20.10;97.10
11214;DHT22;5664;48.606;13.456;2022-11-04T17:08:11;20.10;97.20
11214;DHT22;5664;48.606;13.456;2022-11-04T17:10:36;20.10;97.20
11214;DHT22;5664;48.606;13.456;2022-11-04T17:13:02;20.10;97.20
11214;DHT22;5664;48.606;13.456;2022-11-04T17:15:27;20.10;97.20
11214;DHT22;5664;48.606;13.456;2022-11-04T17:17:53;20.10;97.20
11214;DHT22;5664;48.606;13.456;2022-11-04T17:20:18;20.10;97.20
11214;DHT22;5664;48.606;13.456;2022-11-04T17:22:44;20.10;97.20
11214;DHT22;5664;48.606;13.456;2022-11-04T17:25:18;20.10;97.20
11214;DHT22;5664;48.606;13.456;2022-11-04T17:27:44;20.10;97.30
11214;DHT22;5664;48.606;13.456;2022-11-04T17:30:10;20.10;97.30
11214;DHT22;5664;48.606;13.456;2022-11-04T17:32:37;20.10;97.30
11214;DHT22;5664;48.606;13.456;2022-11-04T17:35:02;20.10;97.30
11214;DHT22;5664;48.606;13.456;2022-11-04T17:37:28;20.10;97.30
11214;DHT22;5664;48.606;13.456;2022-11-04T17:39:54;20.10;97.20
11214;DHT22;5664;48.606;13.456;2022-11-04T17:42:19;20.10;97.20
11214;DHT22;5664;48.606;13.456;2022-11-04T17:45:03;20.10;97.30
11214;DHT22;5664;48.606;13.456;2022-11-04T17:47:31;20.10;97.30
11214;DHT22;5664;48.606;13.456;2022-11-04T17:49:58;20.10;97.30
11214;DHT22;5664;48.606;13.456;2022-11-04T17:52:24;20.10;97.30